createdAt,value
2017-02-23T00:00:03.529Z,1004.02
2017-02-23T00:05:03.494Z,1004.06
2017-02-23T00:10:10.385Z,1003.96
2017-02-23T00:15:03.298Z,1003.91
2017-02-23T00:20:02.976Z,1003.9
2017-02-23T00:25:03.695Z,1003.91
2017-02-23T00:30:03.475Z,1003.94
2017-02-23T00:35:03.221Z,1003.89
2017-02-23T00:40:03.182Z,1003.87
2017-02-23T00:45:03.227Z,1003.82
2017-02-23T00:50:03.269Z,1003.78
2017-02-23T00:55:03.125Z,1003.76
2017-02-23T01:00:03.136Z,1003.74
2017-02-23T01:05:03.053Z,1003.63
2017-02-23T01:10:03.134Z,1003.58
2017-02-23T01:15:02.839Z,1003.62
2017-02-23T01:20:02.830Z,1003.52
2017-02-23T01:25:02.962Z,1003.57
2017-02-23T01:30:02.820Z,1003.53
2017-02-23T01:35:02.779Z,1003.36
2017-02-23T01:40:02.926Z,1003.37
2017-02-23T01:45:02.742Z,1003.26
2017-02-23T01:50:02.892Z,1003.22
2017-02-23T01:55:02.720Z,1003.2
2017-02-23T02:00:03.626Z,1003.09
2017-02-23T02:05:03.517Z,1003
2017-02-23T02:10:03.321Z,1002.94
2017-02-23T02:15:03.330Z,1002.91
2017-02-23T02:20:03.269Z,1002.82
2017-02-23T02:25:03.260Z,1002.79
2017-02-23T02:30:03.140Z,1002.76
2017-02-23T02:35:02.941Z,1002.73
2017-02-23T02:40:02.856Z,1002.61
2017-02-23T02:45:02.715Z,1002.6
2017-02-23T02:50:03.371Z,1002.56
2017-02-23T02:55:03.364Z,1002.49
2017-02-23T03:00:03.459Z,1002.4
2017-02-23T03:05:03.440Z,1002.39
2017-02-23T03:10:03.466Z,1002.35
2017-02-23T03:15:03.124Z,1002.22
2017-02-23T03:20:03.005Z,1002.19
2017-02-23T03:25:02.901Z,1002.01
2017-02-23T03:30:03.619Z,1001.99
2017-02-23T03:35:03.335Z,1001.9
2017-02-23T03:40:03.314Z,1001.8
2017-02-23T03:45:03.230Z,1001.8
2017-02-23T03:50:03.219Z,1001.69
2017-02-23T03:55:03.094Z,1001.6
2017-02-23T04:00:03.127Z,1001.52
2017-02-23T04:05:03.073Z,1001.43
2017-02-23T04:10:03.044Z,1001.44
2017-02-23T04:15:02.761Z,1001.32
2017-02-23T04:20:02.763Z,1001.15
2017-02-23T04:25:03.506Z,1001.01
2017-02-23T04:30:03.543Z,1000.97
2017-02-23T04:35:03.519Z,1000.78
2017-02-23T04:40:03.511Z,1000.54
2017-02-23T04:45:03.306Z,1000.62
2017-02-23T04:50:03.309Z,1000.43
2017-02-23T04:55:03.304Z,1000.38
2017-02-23T05:00:03.312Z,1000.36
2017-02-23T05:05:03.095Z,1000.44
2017-02-23T05:10:02.992Z,1000.11
2017-02-23T05:15:03.049Z,1000.1
2017-02-23T05:20:03.012Z,1000.05
2017-02-23T05:25:02.893Z,999.98
2017-02-23T05:30:05.041Z,999.98
2017-02-23T05:35:02.991Z,999.91
2017-02-23T05:40:03.094Z,1000.06
2017-02-23T05:45:03.073Z,999.79
2017-02-23T05:50:02.937Z,999.65
2017-02-23T05:55:03.643Z,999.44
2017-02-23T06:00:03.521Z,999.59
2017-02-23T06:05:03.226Z,999.52
2017-02-23T06:10:03.233Z,999.48
2017-02-23T06:15:03.063Z,999.4
2017-02-23T06:20:02.840Z,999.44
2017-02-23T06:25:03.643Z,999.34
2017-02-23T06:30:03.670Z,999.47
2017-02-23T06:35:03.607Z,999.49
2017-02-23T06:40:03.520Z,999.41
2017-02-23T06:45:03.251Z,999.31
2017-02-23T06:50:03.054Z,999.27
2017-02-23T06:55:03.019Z,999.17
2017-02-23T07:00:02.952Z,999.14
2017-02-23T07:05:02.784Z,999.38
2017-02-23T07:10:03.615Z,999.29
2017-02-23T07:15:03.358Z,999.09
2017-02-23T07:20:03.204Z,999.09
2017-02-23T07:25:02.984Z,999.09
2017-02-23T07:30:02.899Z,998.98
2017-02-23T07:35:03.673Z,998.87
2017-02-23T07:40:03.515Z,998.68
2017-02-23T07:45:03.263Z,998.63
2017-02-23T07:50:03.237Z,998.6
2017-02-23T07:55:03.256Z,998.62
2017-02-23T08:00:03.259Z,998.53
2017-02-23T08:05:03.292Z,998.36
2017-02-23T08:10:03.331Z,998.15
2017-02-23T08:15:03.084Z,998.07
2017-02-23T08:20:03.215Z,997.93
2017-02-23T08:25:03.503Z,997.93
2017-02-23T08:30:03.494Z,997.77
2017-02-23T08:35:03.264Z,997.65
2017-02-23T08:40:03.242Z,997.8
2017-02-23T08:45:03.111Z,997.71
2017-02-23T08:50:03.126Z,997.5
2017-02-23T08:55:03.001Z,997.31
2017-02-23T09:00:03.122Z,997.03
2017-02-23T09:05:03.187Z,996.99
2017-02-23T09:10:03.352Z,996.77
2017-02-23T09:15:03.349Z,996.81
2017-02-23T09:20:03.309Z,996.69
2017-02-23T09:25:03.285Z,996.82
2017-02-23T09:30:03.334Z,996.75
2017-02-23T09:35:03.400Z,996.66
2017-02-23T09:40:03.259Z,996.67
2017-02-23T09:45:03.159Z,996.48
2017-02-23T09:50:03.232Z,996.32
2017-02-23T09:55:03.286Z,996.63
2017-02-23T10:00:02.950Z,996.12
2017-02-23T10:05:03.716Z,996.19
2017-02-23T10:10:02.723Z,996.21
2017-02-23T10:15:03.615Z,996.14
2017-02-23T10:20:02.707Z,995.67
2017-02-23T10:25:03.517Z,995.62
2017-02-23T10:30:03.325Z,995.58
2017-02-23T10:35:03.110Z,995.47
2017-02-23T10:40:02.915Z,995.11
2017-02-23T10:45:02.747Z,995.38
2017-02-23T10:50:02.847Z,995.2
2017-02-23T10:55:03.504Z,995.13
2017-02-23T11:00:03.468Z,994.92
2017-02-23T11:05:03.573Z,994.96
2017-02-23T11:10:03.452Z,994.57
2017-02-23T11:15:03.197Z,994.32
2017-02-23T11:20:03.132Z,994.21
2017-02-23T11:25:03.116Z,993.81
2017-02-23T11:30:03.107Z,993.48
2017-02-23T11:35:03.096Z,993.36
2017-02-23T11:40:03.413Z,992.96
2017-02-23T11:45:03.652Z,992.63
2017-02-23T11:50:03.658Z,993.02
2017-02-23T11:55:03.296Z,992.21
2017-02-23T12:00:03.132Z,992.17
2017-02-23T12:05:03.089Z,992.05
2017-02-23T12:10:02.987Z,991.86
2017-02-23T12:15:03.090Z,991.8
2017-02-23T12:20:02.896Z,991.41
2017-02-23T12:25:02.889Z,991.22
2017-02-23T12:30:02.981Z,990.83
2017-02-23T12:35:03.233Z,990.72
2017-02-23T12:40:02.822Z,990.86
2017-02-23T12:45:03.625Z,990.5
2017-02-23T12:50:03.471Z,990.22
2017-02-23T12:55:03.298Z,990.18
2017-02-23T13:00:03.364Z,990.02
2017-02-23T13:05:03.451Z,990.06
2017-02-23T13:10:03.406Z,989.77
2017-02-23T13:15:03.516Z,989.94
2017-02-23T13:20:03.374Z,989.72
2017-02-23T13:25:03.174Z,990.07
2017-02-23T13:30:02.944Z,989.84
2017-02-23T13:35:02.870Z,989.79
2017-02-23T13:40:03.621Z,989.68
2017-02-23T13:45:02.794Z,989.25
2017-02-23T13:50:02.714Z,988.81
2017-02-23T13:55:03.616Z,989.05
2017-02-23T14:00:03.561Z,989
2017-02-23T14:05:03.646Z,988.89
2017-02-23T14:10:03.112Z,988.75
2017-02-23T14:15:02.887Z,988.48
2017-02-23T14:20:02.813Z,988.38
2017-02-23T14:25:03.653Z,988.39
2017-02-23T14:30:03.721Z,988.45
2017-02-23T14:35:03.536Z,988.6
2017-02-23T14:40:03.558Z,988.15
2017-02-23T14:45:03.468Z,988.3
2017-02-23T14:50:03.390Z,988.13
2017-02-23T14:55:02.848Z,988.07
2017-02-23T15:00:02.710Z,987.74
2017-02-23T15:05:03.584Z,988.2
2017-02-23T15:10:03.513Z,987.98
2017-02-23T15:15:03.422Z,987.84
2017-02-23T15:20:03.481Z,987.99
2017-02-23T15:25:03.412Z,987.94
2017-02-23T15:30:03.199Z,987.97
2017-02-23T15:35:03.308Z,987.76
2017-02-23T15:40:03.438Z,988.13
2017-02-23T15:45:03.280Z,987.76
2017-02-23T15:50:03.104Z,988.34
2017-02-23T15:55:03.191Z,987.75
2017-02-23T16:00:03.233Z,987.46
2017-02-23T16:05:03.021Z,987.69
2017-02-23T16:10:02.847Z,987.96
2017-02-23T16:15:03.596Z,987.89
2017-02-23T16:20:02.694Z,987.7
2017-02-23T16:25:02.875Z,987.89
2017-02-23T16:30:03.678Z,987.8
2017-02-23T16:35:03.457Z,987.86
2017-02-23T16:40:02.748Z,987.92
2017-02-23T16:45:02.703Z,987.93
2017-02-23T16:50:03.745Z,987.91
2017-02-23T16:55:02.847Z,987.88
2017-02-23T17:00:03.670Z,987.92
2017-02-23T17:05:02.717Z,988.21
2017-02-23T17:10:02.884Z,988.26
2017-02-23T17:15:02.909Z,988.1
2017-02-23T17:20:02.785Z,988.02
2017-02-23T17:25:02.845Z,988.28
2017-02-23T17:30:02.876Z,988.41
2017-02-23T17:35:03.672Z,988.49
2017-02-23T17:40:02.821Z,988.49
2017-02-23T17:45:02.909Z,987.46
2017-02-23T17:50:02.736Z,988.36
2017-02-23T17:55:03.647Z,988.34
2017-02-23T18:00:02.766Z,988.18
2017-02-23T18:05:02.730Z,988.56
2017-02-23T18:10:03.472Z,988.09
2017-02-23T18:15:03.398Z,988.29
2017-02-23T18:20:03.345Z,988.17
2017-02-23T18:25:03.098Z,988.49
2017-02-23T18:30:03.210Z,988.23
2017-02-23T18:35:03.472Z,988.3
2017-02-23T18:40:03.361Z,988.4
2017-02-23T18:45:03.216Z,988.17
2017-02-23T18:50:03.313Z,988.35
2017-02-23T18:55:03.010Z,988.53
2017-02-23T19:00:02.835Z,988.28
2017-02-23T19:05:03.591Z,988.54
2017-02-23T19:10:03.623Z,988.53
2017-02-23T19:15:03.405Z,988.75
2017-02-23T19:20:03.300Z,988.54
2017-02-23T19:25:03.133Z,988.67
2017-02-23T19:30:03.108Z,988.74
2017-02-23T19:35:02.973Z,988.69
2017-02-23T19:40:02.820Z,988.94
2017-02-23T19:45:02.817Z,988.7
2017-02-23T19:50:03.635Z,989.24
2017-02-23T19:55:03.568Z,989.39
2017-02-23T20:00:03.658Z,989.66
2017-02-23T20:05:03.382Z,989.36
2017-02-23T20:10:03.235Z,989.59
2017-02-23T20:15:03.240Z,989.14
2017-02-23T20:20:03.330Z,989.56
2017-02-23T20:25:03.164Z,989.5
2017-02-23T20:30:02.928Z,989.65
2017-02-23T20:35:02.917Z,989.91
2017-02-23T20:40:02.706Z,989.71
2017-02-23T20:45:03.451Z,990.01
2017-02-23T20:50:03.158Z,989.69
2017-02-23T20:55:02.825Z,989.81
2017-02-23T21:00:03.625Z,989.88
2017-02-23T21:05:03.504Z,990.08
2017-02-23T21:10:03.592Z,990.02
2017-02-23T21:15:02.698Z,990.06
2017-02-23T21:20:03.587Z,989.84
2017-02-23T21:25:03.425Z,989.99
2017-02-23T21:30:03.228Z,989.88
2017-02-23T21:35:03.320Z,989.52
2017-02-23T21:40:03.414Z,989.82
2017-02-23T21:45:03.274Z,990.04
2017-02-23T21:50:02.993Z,990.16
2017-02-23T21:55:02.784Z,989.73
2017-02-23T22:00:03.786Z,989.62
2017-02-23T22:05:02.782Z,990.07
2017-02-23T22:10:02.833Z,989.96
2017-02-23T22:15:02.922Z,990.06
2017-02-23T22:20:03.226Z,989.89
2017-02-23T22:25:02.966Z,990.06
2017-02-23T22:30:03.260Z,989.87
2017-02-23T22:35:03.533Z,990.01
2017-02-23T22:40:03.289Z,990.02
2017-02-23T22:45:02.958Z,989.65
2017-02-23T22:50:02.822Z,989.76
2017-02-23T22:55:03.591Z,990.15
2017-02-23T23:00:03.392Z,990.47
2017-02-23T23:05:03.241Z,990.58
2017-02-23T23:10:03.108Z,991.42
2017-02-23T23:15:03.215Z,991.77
2017-02-23T23:20:03.111Z,992.93
2017-02-23T23:25:03.083Z,993.59
2017-02-23T23:30:02.843Z,994.1
2017-02-23T23:35:02.853Z,994.72
2017-02-23T23:40:02.725Z,995.03
2017-02-23T23:45:02.849Z,995.59
2017-02-23T23:50:03.669Z,995.86
2017-02-23T23:55:02.697Z,996.2
